createdAt,value
2023-04-25T00:01:58.719Z,100116.31
2023-04-25T00:04:26.649Z,100115.53
2023-04-25T00:06:55.049Z,100124.63
2023-04-25T00:09:21.777Z,100112.00
2023-04-25T00:11:48.603Z,100122.22
2023-04-25T00:14:15.421Z,100115.53
2023-04-25T00:16:42.388Z,100114.72
2023-04-25T00:19:10.569Z,100110.97
2023-04-25T00:21:41.329Z,100109.38
2023-04-25T00:24:08.658Z,100112.59
2023-04-25T00:26:36.875Z,100117.97
2023-04-25T00:29:03.810Z,100116.34
2023-04-25T00:31:31.373Z,100115.81
2023-04-25T00:33:58.378Z,100115.81
2023-04-25T00:36:25.820Z,100115.28
2023-04-25T00:38:54.809Z,100113.66
2023-04-25T00:41:21.806Z,100112.06
2023-04-25T00:43:51.938Z,100111.25
2023-04-25T00:46:18.985Z,100106.69
2023-04-25T00:48:45.794Z,100106.69
2023-04-25T00:51:17.507Z,100103.47
2023-04-25T00:53:46.010Z,100099.72
2023-04-25T00:56:13.380Z,100100.00
2023-04-25T00:58:44.262Z,100089.53
2023-04-25T01:01:12.740Z,100094.91
2023-04-25T01:03:44.091Z,100092.22
2023-04-25T01:06:11.820Z,100083.09
2023-04-25T01:08:39.936Z,100087.38
2023-04-25T01:11:07.787Z,100087.91
2023-04-25T01:13:35.693Z,100086.84
2023-04-25T01:16:03.776Z,100092.19
2023-04-25T01:18:30.643Z,100086.31
2023-04-25T01:21:07.812Z,100088.19
2023-04-25T01:23:35.266Z,100086.31
2023-04-25T01:26:02.166Z,100077.44
2023-04-25T01:28:29.900Z,100080.66
2023-04-25T01:30:57.964Z,100072.34
2023-04-25T01:33:25.020Z,100079.34
2023-04-25T01:35:52.225Z,100078.53
2023-04-25T01:38:20.864Z,100080.41
2023-04-25T01:40:50.300Z,100086.59
2023-04-25T01:43:19.408Z,100082.56
2023-04-25T01:45:46.314Z,100084.16
2023-04-25T01:48:14.281Z,100093.81
2023-04-25T01:50:41.783Z,100095.41
2023-04-25T01:53:10.755Z,100091.69
2023-04-25T01:55:37.350Z,100101.06
2023-04-25T01:58:13.249Z,100097.03
2023-04-25T02:00:58.732Z,100102.34
2023-04-25T02:03:32.549Z,100092.66
2023-04-25T02:06:00.301Z,100097.19
2023-04-25T02:08:27.892Z,100095.28
2023-04-25T02:10:56.953Z,100096.88
2023-04-25T02:13:24.888Z,100095.03
2023-04-25T02:16:04.796Z,100097.97
2023-04-25T02:18:32.394Z,100094.22
2023-04-25T02:21:02.055Z,100094.22
2023-04-25T02:23:29.762Z,100096.63
2023-04-25T02:25:58.344Z,100086.22
2023-04-25T02:28:28.000Z,100086.75
2023-04-25T02:30:55.198Z,100086.75
2023-04-25T02:33:22.128Z,100093.94
2023-04-25T02:35:48.983Z,100089.13
2023-04-25T02:38:15.766Z,100087.78
2023-04-25T02:40:42.426Z,100081.31
2023-04-25T02:43:09.161Z,100086.19
2023-04-25T02:45:36.352Z,100081.91
2023-04-25T02:48:04.181Z,100080.56
2023-04-25T02:50:32.534Z,100082.72
2023-04-25T02:52:59.593Z,100081.94
2023-04-25T02:55:31.230Z,100078.97
2023-04-25T02:57:59.754Z,100080.34
2023-04-25T03:00:56.114Z,100080.84
2023-04-25T03:03:23.250Z,100081.91
2023-04-25T03:05:54.296Z,100075.50
2023-04-25T03:08:33.379Z,100075.75
2023-04-25T03:11:01.701Z,100066.13
2023-04-25T03:13:30.842Z,100066.94
2023-04-25T03:15:58.239Z,100062.13
2023-04-25T03:18:26.081Z,100069.63
2023-04-25T03:20:54.888Z,100069.09
2023-04-25T03:23:21.843Z,100063.75
2023-04-25T03:25:48.504Z,100053.81
2023-04-25T03:28:15.609Z,100063.75
2023-04-25T03:30:42.321Z,100056.50
2023-04-25T03:33:10.066Z,100061.06
2023-04-25T03:35:36.771Z,100062.13
2023-04-25T03:38:03.531Z,100057.31
2023-04-25T03:40:35.357Z,100052.47
2023-04-25T03:43:15.856Z,100052.19
2023-04-25T03:45:49.067Z,100062.09
2023-04-25T03:48:19.038Z,100059.41
2023-04-25T03:50:46.174Z,100074.44
2023-04-25T03:53:12.851Z,100071.22
2023-04-25T03:55:59.430Z,100067.16
2023-04-25T03:58:26.043Z,100064.78
2023-04-25T04:00:55.218Z,100082.97
2023-04-25T04:03:22.579Z,100080.84
2023-04-25T04:05:51.606Z,100078.97
2023-04-25T04:08:18.337Z,100078.97
2023-04-25T04:10:45.127Z,100078.72
2023-04-25T04:13:12.056Z,100080.31
2023-04-25T04:15:38.821Z,100077.91
2023-04-25T04:18:05.672Z,100073.38
2023-04-25T04:20:32.396Z,100078.19
2023-04-25T04:22:59.126Z,100078.19
2023-04-25T04:25:25.919Z,100083.03
2023-04-25T04:28:09.343Z,100087.06
2023-04-25T04:30:52.275Z,100090.53
2023-04-25T04:33:22.320Z,100085.72
2023-04-25T04:35:56.610Z,100087.84
2023-04-25T04:38:23.301Z,100093.75
2023-04-25T04:40:51.515Z,100096.97
2023-04-25T04:43:25.962Z,100088.41
2023-04-25T04:46:04.471Z,100094.34
2023-04-25T04:48:41.014Z,100101.56
2023-04-25T04:51:45.415Z,100097.84
2023-04-25T04:54:29.957Z,100108.28
2023-04-25T04:57:15.205Z,100108.00
2023-04-25T04:59:56.947Z,100111.47
2023-04-25T05:02:50.168Z,100116.28
2023-04-25T05:05:35.667Z,100120.00
2023-04-25T05:08:25.571Z,100119.75
2023-04-25T05:11:14.998Z,100120.00
2023-04-25T05:14:01.950Z,100125.34
2023-04-25T05:16:58.124Z,100121.84
2023-04-25T05:19:40.482Z,100117.84
2023-04-25T05:22:24.024Z,100117.31
2023-04-25T05:25:22.767Z,100120.00
2023-04-25T05:27:49.504Z,100132.38
2023-04-25T05:30:31.068Z,100122.75
2023-04-25T05:33:05.116Z,100132.13
2023-04-25T05:35:32.232Z,100127.31
2023-04-25T05:37:58.973Z,100127.59
2023-04-25T05:40:45.047Z,100124.94
2023-04-25T05:43:17.108Z,100136.19
2023-04-25T05:45:59.471Z,100130.81
2023-04-25T05:48:26.191Z,100139.69
2023-04-25T05:51:00.845Z,100136.19
2023-04-25T05:53:46.880Z,100138.88
2023-04-25T05:56:15.211Z,100139.94
2023-04-25T05:58:42.233Z,100145.03
2023-04-25T06:01:11.252Z,100151.19
2023-04-25T06:03:39.555Z,100143.44
2023-04-25T06:06:06.893Z,100148.53
2023-04-25T06:08:33.876Z,100151.75
2023-04-25T06:11:00.628Z,100147.47
2023-04-25T06:13:27.352Z,100152.81
2023-04-25T06:15:55.585Z,100149.06
2023-04-25T06:18:22.285Z,100150.41
2023-04-25T06:20:49.572Z,100145.84
2023-04-25T06:23:18.125Z,100151.75
2023-04-25T06:26:02.361Z,100157.66
2023-04-25T06:28:30.913Z,100158.69
2023-04-25T06:30:57.726Z,100169.16
2023-04-25T06:33:25.370Z,100168.88
2023-04-25T06:35:54.146Z,100168.59
2023-04-25T06:38:24.665Z,100176.38
2023-04-25T06:40:52.884Z,100184.16
2023-04-25T06:43:19.920Z,100177.22
2023-04-25T06:45:55.950Z,100177.50
2023-04-25T06:48:23.990Z,100168.94
2023-04-25T06:50:51.675Z,100180.47
2023-04-25T06:53:19.696Z,100183.16
2023-04-25T06:55:50.400Z,100187.16
2023-04-25T06:58:19.686Z,100182.34
2023-04-25T07:01:04.821Z,100196.53
2023-04-25T07:03:33.382Z,100201.66
2023-04-25T07:06:04.991Z,100206.47
2023-04-25T07:08:31.678Z,100208.63
2023-04-25T07:11:00.460Z,100203.78
2023-04-25T07:13:27.670Z,100208.09
2023-04-25T07:15:56.651Z,100211.59
2023-04-25T07:18:24.251Z,100203.00
2023-04-25T07:20:51.720Z,100204.34
2023-04-25T07:23:19.683Z,100210.75
2023-04-25T07:25:47.472Z,100198.41
2023-04-25T07:28:19.672Z,100205.16
2023-04-25T07:30:47.724Z,100212.66
2023-04-25T07:33:14.465Z,100214.53
2023-04-25T07:35:41.199Z,100217.50
2023-04-25T07:38:08.931Z,100213.97
2023-04-25T07:40:36.378Z,100216.13
2023-04-25T07:43:07.204Z,100220.16
2023-04-25T07:45:49.636Z,100216.38
2023-04-25T07:48:20.114Z,100216.03
2023-04-25T07:50:47.726Z,100226.88
2023-04-25T07:53:31.579Z,100225.41
2023-04-25T07:56:02.814Z,100223.56
2023-04-25T07:58:33.053Z,100226.88
2023-04-25T08:01:02.539Z,100236.28
2023-04-25T08:03:35.741Z,100238.31
2023-04-25T08:06:08.782Z,100247.59
2023-04-25T08:08:43.765Z,100247.75
2023-04-25T08:11:13.828Z,100252.81
2023-04-25T08:13:40.869Z,100260.19
2023-04-25T08:16:07.760Z,100265.09
2023-04-25T08:18:35.568Z,100266.63
2023-04-25T08:21:02.541Z,100259.94
2023-04-25T08:23:30.567Z,100266.28
2023-04-25T08:26:09.056Z,100270.00
2023-04-25T08:28:38.425Z,100273.81
2023-04-25T08:31:05.639Z,100281.50
2023-04-25T08:33:40.685Z,100280.72
2023-04-25T08:36:31.593Z,100272.09
2023-04-25T08:39:05.840Z,100289.81
2023-04-25T08:41:38.478Z,100285.31
2023-04-25T08:44:10.810Z,100288.56
2023-04-25T08:46:42.189Z,100293.59
2023-04-25T08:49:30.632Z,100296.63
2023-04-25T08:52:00.784Z,100300.63
2023-04-25T08:54:35.424Z,100301.25
2023-04-25T08:57:06.554Z,100300.19
2023-04-25T08:59:33.726Z,100314.00
2023-04-25T09:02:01.965Z,100291.56
2023-04-25T09:04:33.805Z,100306.09
2023-04-25T09:07:00.625Z,100300.34
2023-04-25T09:09:28.049Z,100297.84
2023-04-25T09:11:56.769Z,100305.34
2023-04-25T09:14:26.877Z,100307.84
2023-04-25T09:17:19.819Z,100316.75
2023-04-25T09:19:53.128Z,100322.09
2023-04-25T09:22:27.295Z,100319.59
2023-04-25T09:24:54.063Z,100326.69
2023-04-25T09:27:24.267Z,100325.50
2023-04-25T09:30:01.522Z,100328.81
2023-04-25T09:32:33.711Z,100329.16
2023-04-25T09:35:01.009Z,100331.03
2023-04-25T09:37:31.305Z,100347.34
2023-04-25T09:40:08.849Z,100349.94
2023-04-25T09:42:48.319Z,100361.03
2023-04-25T09:45:16.668Z,100359.00
2023-04-25T09:47:47.528Z,100362.13
2023-04-25T09:50:20.370Z,100370.28
2023-04-25T09:53:07.977Z,100373.81
2023-04-25T09:55:51.957Z,100379.50
2023-04-25T09:58:19.016Z,100372.09
2023-04-25T10:00:45.890Z,100362.06
2023-04-25T10:03:27.116Z,100358.63
2023-04-25T10:06:20.850Z,100364.78
2023-04-25T10:08:53.241Z,100356.31
2023-04-25T10:11:20.678Z,100356.63
2023-04-25T10:13:48.947Z,100352.97
2023-04-25T10:16:17.413Z,100361.66
2023-04-25T10:18:44.182Z,100357.06
2023-04-25T10:21:11.977Z,100370.69
2023-04-25T10:23:39.490Z,100362.44
2023-04-25T10:26:06.572Z,100368.94
2023-04-25T10:28:59.178Z,100377.31
2023-04-25T10:31:26.732Z,100380.50
2023-04-25T10:33:54.536Z,100372.00
2023-04-25T10:36:23.663Z,100376.94
2023-04-25T10:38:55.472Z,100373.81
2023-04-25T10:41:24.187Z,100374.06
2023-04-25T10:44:01.000Z,100376.75
2023-04-25T10:46:32.181Z,100379.63
2023-04-25T10:49:01.858Z,100384.09
2023-04-25T10:51:54.505Z,100381.28
2023-04-25T10:54:26.152Z,100385.13
2023-04-25T10:56:54.766Z,100391.56
2023-04-25T10:59:26.252Z,100390.25
2023-04-25T11:01:56.963Z,100396.41
2023-04-25T11:04:36.949Z,100400.38
2023-04-25T11:07:47.961Z,100400.22
2023-04-25T11:10:17.048Z,100400.97
2023-04-25T11:12:43.780Z,100407.75
2023-04-25T11:15:10.602Z,100402.47
2023-04-25T11:17:37.371Z,100402.00
2023-04-25T11:20:08.377Z,100401.19
2023-04-25T11:22:35.901Z,100411.09
2023-04-25T11:25:07.470Z,100405.63
2023-04-25T11:27:34.318Z,100410.47
2023-04-25T11:30:18.919Z,100405.75
2023-04-25T11:32:46.426Z,100397.59
2023-04-25T11:35:13.965Z,100400.63
2023-04-25T11:37:41.568Z,100409.88
2023-04-25T11:40:10.568Z,100410.41
2023-04-25T11:42:45.387Z,100411.19
2023-04-25T11:45:12.545Z,100414.44
2023-04-25T11:47:39.799Z,100419.47
2023-04-25T11:50:09.019Z,100427.09
2023-04-25T11:52:43.932Z,100422.03
2023-04-25T11:55:15.712Z,100432.28
2023-04-25T11:57:44.060Z,100429.88
2023-04-25T12:00:18.043Z,100429.47
2023-04-25T12:02:47.931Z,100438.66
2023-04-25T12:05:31.372Z,100435.50
2023-04-25T12:08:13.563Z,100439.78
2023-04-25T12:10:42.107Z,100440.63
2023-04-25T12:13:21.961Z,100445.97
2023-04-25T12:15:48.940Z,100444.34
2023-04-25T12:18:15.760Z,100436.59
2023-04-25T12:20:42.898Z,100446.84
2023-04-25T12:23:09.913Z,100445.72
2023-04-25T12:25:43.762Z,100438.81
2023-04-25T12:28:20.727Z,100447.63
2023-04-25T12:30:58.504Z,100445.09
2023-04-25T12:33:45.074Z,100451.53
2023-04-25T12:36:12.758Z,100444.31
2023-04-25T12:38:41.345Z,100441.00
2023-04-25T12:41:08.481Z,100450.22
2023-04-25T12:43:35.658Z,100458.50
2023-04-25T12:46:02.457Z,100456.81
2023-04-25T12:48:30.851Z,100454.00
2023-04-25T12:50:57.755Z,100457.94
2023-04-25T12:53:27.457Z,100451.44
2023-04-25T12:58:21.165Z,100458.66
2023-04-25T13:00:48.821Z,100455.72
2023-04-25T13:03:15.625Z,100457.53
2023-04-25T13:05:43.234Z,100457.41
2023-04-25T13:08:10.085Z,100448.44
2023-04-25T13:10:39.277Z,100464.88
2023-04-25T13:13:06.213Z,100461.56
2023-04-25T13:15:33.332Z,100451.56
2023-04-25T13:18:00.192Z,100451.06
2023-04-25T13:20:27.097Z,100453.56
2023-04-25T13:22:53.879Z,100446.41
2023-04-25T13:25:20.698Z,100455.25
2023-04-25T13:27:47.670Z,100458.47
2023-04-25T13:30:14.850Z,100456.25
2023-04-25T13:32:42.107Z,100460.88
2023-04-25T13:35:11.590Z,100460.06
2023-04-25T13:37:39.520Z,100465.84
2023-04-25T13:40:12.330Z,100470.16
2023-04-25T13:42:39.824Z,100470.84
2023-04-25T13:45:07.951Z,100468.47
2023-04-25T13:47:35.923Z,100474.19
2023-04-25T13:50:04.222Z,100475.22
2023-04-25T13:52:31.004Z,100479.22
2023-04-25T13:54:57.695Z,100483.34
2023-04-25T13:57:24.885Z,100475.56
2023-04-25T13:59:52.032Z,100474.78
2023-04-25T14:02:19.068Z,100483.16
2023-04-25T14:04:46.331Z,100481.28
2023-04-25T14:07:13.322Z,100484.63
2023-04-25T14:09:39.908Z,100485.50
2023-04-25T14:12:07.091Z,100490.09
2023-04-25T14:14:33.856Z,100490.09
2023-04-25T14:17:00.985Z,100479.66
2023-04-25T14:19:27.883Z,100485.69
2023-04-25T14:21:55.114Z,100486.38
2023-04-25T14:24:21.970Z,100495.72
2023-04-25T14:26:48.822Z,100493.63
2023-04-25T14:29:15.497Z,100491.13
2023-04-25T14:31:42.307Z,100489.00
2023-04-25T14:34:09.532Z,100491.06
2023-04-25T14:36:37.283Z,100496.69
2023-04-25T14:39:06.447Z,100503.47
2023-04-25T14:41:33.406Z,100508.44
2023-04-25T14:44:00.583Z,100504.72
2023-04-25T14:46:28.051Z,100504.13
2023-04-25T14:48:56.909Z,100503.00
2023-04-25T14:51:24.470Z,100501.03
2023-04-25T14:53:52.413Z,100499.47
2023-04-25T14:56:19.823Z,100506.22
2023-04-25T14:58:46.711Z,100499.00
2023-04-25T15:01:14.153Z,100501.34
2023-04-25T15:03:41.680Z,100502.06
2023-04-25T15:06:08.779Z,100498.00
2023-04-25T15:08:36.180Z,100498.00
2023-04-25T15:11:04.737Z,100506.03
2023-04-25T15:13:32.119Z,100500.50
2023-04-25T15:15:59.181Z,100505.06
2023-04-25T15:18:25.884Z,100498.97
2023-04-25T15:20:53.631Z,100494.84
2023-04-25T15:23:22.385Z,100498.53
2023-04-25T15:25:51.585Z,100509.84
2023-04-25T15:28:18.289Z,100508.44
2023-04-25T15:30:46.014Z,100506.72
2023-04-25T15:33:12.851Z,100509.66
2023-04-25T15:35:39.657Z,100518.28
2023-04-25T15:38:07.653Z,100516.25
2023-04-25T15:40:34.397Z,100519.13
2023-04-25T15:43:01.097Z,100526.34
2023-04-25T15:45:27.893Z,100533.81
2023-04-25T15:47:57.367Z,100531.50
2023-04-25T15:50:24.926Z,100530.47
2023-04-25T15:52:52.417Z,100534.03
2023-04-25T15:55:21.719Z,100537.19
2023-04-25T15:57:49.731Z,100528.94
2023-04-25T16:00:21.190Z,100538.81
2023-04-25T16:02:48.557Z,100530.72
2023-04-25T16:05:15.654Z,100528.53
2023-04-25T16:07:44.235Z,100530.97
2023-04-25T16:10:12.117Z,100533.97
2023-04-25T16:12:40.509Z,100543.69
2023-04-25T16:15:08.346Z,100552.38
2023-04-25T16:17:35.350Z,100548.69
2023-04-25T16:20:09.550Z,100549.84
2023-04-25T16:22:38.086Z,100545.63
2023-04-25T16:25:05.780Z,100545.69
2023-04-25T16:27:34.628Z,100540.31
2023-04-25T16:30:02.612Z,100552.47
2023-04-25T16:32:29.552Z,100552.28
2023-04-25T16:34:58.270Z,100562.56
2023-04-25T16:37:25.900Z,100556.69
2023-04-25T16:39:52.629Z,100558.31
2023-04-25T16:42:19.470Z,100556.22
2023-04-25T16:44:46.217Z,100549.75
2023-04-25T16:47:15.725Z,100553.56
2023-04-25T16:49:44.782Z,100548.72
2023-04-25T16:52:12.738Z,100553.06
2023-04-25T16:54:39.447Z,100554.13
2023-04-25T16:57:07.260Z,100553.03
2023-04-25T16:59:33.980Z,100550.88
2023-04-25T17:02:02.469Z,100554.66
2023-04-25T17:04:29.343Z,100568.38
2023-04-25T17:06:56.188Z,100563.28
2023-04-25T17:09:22.978Z,100570.25
2023-04-25T17:11:49.691Z,100567.59
2023-04-25T17:14:16.322Z,100580.47
2023-04-25T17:16:43.041Z,100586.38
2023-04-25T17:19:09.800Z,100586.66
2023-04-25T17:21:36.638Z,100593.13
2023-04-25T17:24:06.058Z,100588.53
2023-04-25T17:26:32.877Z,100590.16
2023-04-25T17:28:59.647Z,100585.31
2023-04-25T17:31:26.960Z,100593.06
2023-04-25T17:33:53.698Z,100594.41
2023-04-25T17:36:21.432Z,100602.22
2023-04-25T17:38:48.206Z,100606.00
2023-04-25T17:41:15.248Z,100607.31
2023-04-25T17:43:42.073Z,100615.66
2023-04-25T17:46:08.984Z,100613.50
2023-04-25T17:48:35.833Z,100622.34
2023-04-25T17:51:02.801Z,100624.50
2023-04-25T17:53:29.448Z,100618.59
2023-04-25T17:55:56.387Z,100617.25
2023-04-25T17:58:23.342Z,100615.66
2023-04-25T18:00:50.134Z,100616.94
2023-04-25T18:03:17.352Z,100623.88
2023-04-25T18:05:46.501Z,100630.03
2023-04-25T18:08:13.619Z,100635.59
2023-04-25T18:10:40.529Z,100633.94
2023-04-25T18:13:09.146Z,100635.28
2023-04-25T18:15:35.946Z,100642.78
2023-04-25T18:18:09.591Z,100649.50
2023-04-25T18:20:36.543Z,100638.22
2023-04-25T18:23:03.312Z,100653.78
2023-04-25T18:25:30.408Z,100658.09
2023-04-25T18:27:57.517Z,100659.41
2023-04-25T18:30:24.274Z,100656.69
2023-04-25T18:32:51.333Z,100665.56
2023-04-25T18:35:18.296Z,100674.94
2023-04-25T18:37:45.099Z,100670.91
2023-04-25T18:40:14.408Z,100675.19
2023-04-25T18:42:41.529Z,100683.16
2023-04-25T18:45:09.233Z,100680.47
2023-04-25T18:47:36.095Z,100683.94
2023-04-25T18:50:04.768Z,100693.84
2023-04-25T18:52:31.678Z,100693.56
2023-04-25T18:54:58.583Z,100700.50
2023-04-25T18:57:25.407Z,100696.66
2023-04-25T18:59:53.876Z,100706.25
2023-04-25T19:02:20.693Z,100707.59
2023-04-25T19:04:47.556Z,100703.88
2023-04-25T19:07:14.976Z,100706.81
2023-04-25T19:09:41.741Z,100706.00
2023-04-25T19:12:08.698Z,100707.25
2023-04-25T19:14:36.256Z,100704.31
2023-04-25T19:17:03.168Z,100717.69
2023-04-25T19:19:30.136Z,100712.84
2023-04-25T19:21:58.819Z,100714.44
2023-04-25T19:24:27.134Z,100713.88
2023-04-25T19:26:54.051Z,100711.09
2023-04-25T19:29:21.412Z,100718.00
2023-04-25T19:31:48.221Z,100717.94
2023-04-25T19:34:16.221Z,100724.34
2023-04-25T19:36:44.182Z,100731.28
2023-04-25T19:39:11.163Z,100728.00
2023-04-25T19:41:38.906Z,100729.47
2023-04-25T19:44:07.661Z,100736.31
2023-04-25T19:46:36.887Z,100722.59
2023-04-25T19:49:07.368Z,100725.47
2023-04-25T19:51:35.063Z,100726.47
2023-04-25T19:54:01.770Z,100723.75
2023-04-25T19:56:29.684Z,100731.22
2023-04-25T19:58:58.372Z,100730.09
2023-04-25T20:01:25.691Z,100731.13
2023-04-25T20:03:52.867Z,100737.56
2023-04-25T20:06:19.982Z,100754.19
2023-04-25T20:08:47.392Z,100756.63
2023-04-25T20:11:15.012Z,100753.13
2023-04-25T20:13:41.948Z,100761.72
2023-04-25T20:16:08.739Z,100760.44
2023-04-25T20:18:35.420Z,100751.84
2023-04-25T20:21:05.672Z,100753.94
2023-04-25T20:23:32.377Z,100756.88
2023-04-25T20:25:59.123Z,100749.63
2023-04-25T20:28:27.388Z,100749.88
2023-04-25T20:30:54.191Z,100762.69
2023-04-25T20:33:22.063Z,100752.50
2023-04-25T20:35:49.281Z,100758.91
2023-04-25T20:38:16.423Z,100760.78
2023-04-25T20:40:44.032Z,100762.41
2023-04-25T20:43:12.062Z,100764.25
2023-04-25T20:45:39.683Z,100764.81
2023-04-25T20:48:06.439Z,100761.09
2023-04-25T20:50:33.561Z,100761.56
2023-04-25T20:53:00.253Z,100763.06
2023-04-25T20:55:30.153Z,100762.44
2023-04-25T20:57:57.680Z,100763.97
2023-04-25T21:00:29.127Z,100762.34
2023-04-25T21:02:57.009Z,100761.31
2023-04-25T21:05:24.663Z,100767.78
2023-04-25T21:07:54.895Z,100769.50
2023-04-25T21:10:22.019Z,100770.03
2023-04-25T21:12:49.684Z,100777.53
2023-04-25T21:15:21.321Z,100782.31
2023-04-25T21:17:49.659Z,100780.19
2023-04-25T21:20:18.159Z,100777.03
2023-04-25T21:22:53.490Z,100785.63
2023-04-25T21:25:29.147Z,100779.94
2023-04-25T21:27:56.323Z,100775.00
2023-04-25T21:30:24.871Z,100775.09
2023-04-25T21:32:52.851Z,100784.00
2023-04-25T21:35:20.887Z,100783.25
2023-04-25T21:37:48.468Z,100787.91
2023-04-25T21:40:15.715Z,100788.88
2023-04-25T21:42:44.506Z,100788.53
2023-04-25T21:45:11.916Z,100795.66
2023-04-25T21:47:39.189Z,100800.34
2023-04-25T21:50:06.417Z,100797.31
2023-04-25T21:52:33.377Z,100792.69
2023-04-25T21:55:00.359Z,100799.56
2023-04-25T21:57:27.418Z,100803.19
2023-04-25T21:59:54.141Z,100812.41
2023-04-25T22:02:20.959Z,100816.16
2023-04-25T22:04:48.411Z,100819.25
2023-04-25T22:07:15.850Z,100816.78
2023-04-25T22:09:53.853Z,100819.53
2023-04-25T22:12:22.622Z,100817.91
2023-04-25T22:14:49.365Z,100823.84
2023-04-25T22:17:16.113Z,100825.00
2023-04-25T22:19:43.254Z,100822.41
2023-04-25T22:22:10.116Z,100824.84
2023-04-25T22:24:37.153Z,100826.72
2023-04-25T22:27:03.913Z,100833.09
2023-04-25T22:29:32.629Z,100836.09
2023-04-25T22:31:59.453Z,100834.91
2023-04-25T22:34:26.453Z,100834.91
2023-04-25T22:36:53.173Z,100837.50
2023-04-25T22:39:19.948Z,100838.56
2023-04-25T22:41:48.234Z,100830.53
2023-04-25T22:44:15.748Z,100831.34
2023-04-25T22:46:43.307Z,100838.56
2023-04-25T22:49:10.094Z,100843.91
2023-04-25T22:51:37.051Z,100844.63
2023-04-25T22:54:05.401Z,100847.19
2023-04-25T22:56:32.961Z,100847.91
2023-04-25T22:58:59.854Z,100853.50
2023-04-25T23:01:28.017Z,100851.53
2023-04-25T23:03:55.182Z,100852.34
2023-04-25T23:06:22.114Z,100855.59
2023-04-25T23:08:48.998Z,100855.59
2023-04-25T23:11:15.724Z,100856.09
2023-04-25T23:13:44.117Z,100854.13
2023-04-25T23:16:11.284Z,100860.75
2023-04-25T23:18:39.463Z,100855.66
2023-04-25T23:21:11.388Z,100863.66
2023-04-25T23:23:38.829Z,100862.59
2023-04-25T23:26:09.739Z,100862.59
2023-04-25T23:28:39.872Z,100861.44
2023-04-25T23:31:09.988Z,100861.38
2023-04-25T23:33:38.138Z,100866.56
2023-04-25T23:36:05.526Z,100859.47
2023-04-25T23:38:34.766Z,100860.19
2023-04-25T23:41:01.780Z,100867.06
2023-04-25T23:43:28.473Z,100870.44
2023-04-25T23:45:55.884Z,100873.59
2023-04-25T23:48:22.964Z,100880.44
2023-04-25T23:50:49.685Z,100883.00
2023-04-25T23:53:16.435Z,100875.09
2023-04-25T23:55:43.151Z,100883.25
2023-04-25T23:58:10.098Z,100884.16
